sensor_id;sensor_type;location;lat;lon;timestamp;pressure;altitude;pressure_sealevel;temperature;humidity
68077;BME280;54866;53.458;14.540;2023-02-04T00:00:57;101290.35;;;0.24;97.99
68077;BME280;54866;53.458;14.540;2023-02-04T00:03:27;101303.91;;;0.22;97.58
68077;BME280;54866;53.458;14.540;2023-02-04T00:05:56;101310.42;;;0.18;97.46
68077;BME280;54866;53.458;14.540;2023-02-04T00:08:26;101321.58;;;0.15;97.44
68077;BME280;54866;53.458;14.540;2023-02-04T00:10:55;101330.16;;;0.12;96.98
68077;BME280;54866;53.458;14.540;2023-02-04T00:13:24;101328.83;;;0.09;96.87
68077;BME280;54866;53.458;14.540;2023-02-04T00:15:54;101340.11;;;0.09;96.78
68077;BME280;54866;53.458;14.540;2023-02-04T00:18:23;101351.06;;;0.07;96.99
68077;BME280;54866;53.458;14.540;2023-02-04T00:20:52;101360.16;;;0.04;97.01
68077;BME280;54866;53.458;14.540;2023-02-04T00:23:21;101371.79;;;0.03;97.23
68077;BME280;54866;53.458;14.540;2023-02-04T00:25:51;101376.88;;;0.00;97.29
68077;BME280;54866;53.458;14.540;2023-02-04T00:28:20;101386.09;;;-0.02;97.67
68077;BME280;54866;53.458;14.540;2023-02-04T00:30:49;101389.99;;;0.03;98.37
68077;BME280;54866;53.458;14.540;2023-02-04T00:33:19;101394.34;;;0.02;99.60
68077;BME280;54866;53.458;14.540;2023-02-04T00:35:48;101406.45;;;0.02;100.00
68077;BME280;54866;53.458;14.540;2023-02-04T00:38:17;101415.16;;;0.00;100.00
68077;BME280;54866;53.458;14.540;2023-02-04T00:40:47;101422.99;;;-0.03;100.00
68077;BME280;54866;53.458;14.540;2023-02-04T00:43:16;101434.80;;;-0.04;100.00
68077;BME280;54866;53.458;14.540;2023-02-04T00:45:45;101448.17;;;-0.05;100.00
68077;BME280;54866;53.458;14.540;2023-02-04T00:48:15;101460.35;;;-0.08;100.00
68077;BME280;54866;53.458;14.540;2023-02-04T00:50:44;101467.67;;;-0.10;100.00
68077;BME280;54866;53.458;14.540;2023-02-04T00:53:13;101482.74;;;-0.09;100.00
68077;BME280;54866;53.458;14.540;2023-02-04T00:55:42;101488.69;;;-0.12;100.00
68077;BME280;54866;53.458;14.540;2023-02-04T00:58:12;101504.30;;;-0.13;100.00
68077;BME280;54866;53.458;14.540;2023-02-04T01:00:41;101511.64;;;-0.16;100.00
68077;BME280;54866;53.458;14.540;2023-02-04T01:03:10;101520.15;;;-0.16;100.00
68077;BME280;54866;53.458;14.540;2023-02-04T01:05:40;101528.82;;;-0.18;100.00
68077;BME280;54866;53.458;14.540;2023-02-04T01:08:09;101538.23;;;-0.21;100.00
68077;BME280;54866;53.458;14.540;2023-02-04T01:10:38;101550.14;;;-0.20;100.00
68077;BME280;54866;53.458;14.540;2023-02-04T01:13:08;101553.41;;;-0.18;100.00
68077;BME280;54866;53.458;14.540;2023-02-04T01:15:37;101565.32;;;-0.15;100.00
68077;BME280;54866;53.458;14.540;2023-02-04T01:18:07;101572.23;;;-0.14;100.00
68077;BME280;54866;53.458;14.540;2023-02-04T01:20:36;101575.80;;;-0.11;100.00
68077;BME280;54866;53.458;14.540;2023-02-04T01:23:05;101588.10;;;-0.11;100.00
68077;BME280;54866;53.458;14.540;2023-02-04T01:25:35;101600.05;;;-0.11;99.92
68077;BME280;54866;53.458;14.540;2023-02-04T01:28:04;101601.27;;;-0.11;99.55
68077;BME280;54866;53.458;14.540;2023-02-04T01:30:33;101612.19;;;-0.12;99.34
68077;BME280;54866;53.458;14.540;2023-02-04T01:33:03;101616.87;;;-0.12;98.98
68077;BME280;54866;53.458;14.540;2023-02-04T01:35:32;101620.38;;;-0.15;98.98
68077;BME280;54866;53.458;14.540;2023-02-04T01:38:01;101618.88;;;-0.18;99.02
68077;BME280;54866;53.458;14.540;2023-02-04T01:40:31;101629.79;;;-0.18;98.82
68077;BME280;54866;53.458;14.540;2023-02-04T01:43:00;101631.91;;;-0.21;98.61
68077;BME280;54866;53.458;14.540;2023-02-04T01:45:30;101637.32;;;-0.22;98.55
68077;BME280;54866;53.458;14.540;2023-02-04T01:48:02;101644.75;;;-0.21;98.46
68077;BME280;54866;53.458;14.540;2023-02-04T01:50:32;101648.23;;;-0.23;98.55
68077;BME280;54866;53.458;14.540;2023-02-04T01:53:02;101648.66;;;-0.27;98.38
68077;BME280;54866;53.458;14.540;2023-02-04T01:55:33;101653.86;;;-0.27;98.43
68077;BME280;54866;53.458;14.540;2023-02-04T01:58:02;101660.79;;;-0.27;98.33
68077;BME280;54866;53.458;14.540;2023-02-04T02:00:33;101669.45;;;-0.27;98.14
68077;BME280;54866;53.458;14.540;2023-02-04T02:03:02;101678.30;;;-0.28;98.24
68077;BME280;54866;53.458;14.540;2023-02-04T02:05:35;101688.88;;;-0.29;98.22
68077;BME280;54866;53.458;14.540;2023-02-04T02:08:06;101699.48;;;-0.31;98.22
68077;BME280;54866;53.458;14.540;2023-02-04T02:10:37;101711.11;;;-0.34;98.30
68077;BME280;54866;53.458;14.540;2023-02-04T02:13:09;101715.50;;;-0.38;98.37
68077;BME280;54866;53.458;14.540;2023-02-04T02:15:39;101731.78;;;-0.38;98.40
68077;BME280;54866;53.458;14.540;2023-02-04T02:18:10;101736.31;;;-0.40;98.56
68077;BME280;54866;53.458;14.540;2023-02-04T02:20:40;101750.20;;;-0.42;98.76
68077;BME280;54866;53.458;14.540;2023-02-04T02:23:18;101753.66;;;-0.42;99.06
68077;BME280;54866;53.458;14.540;2023-02-04T02:25:49;101760.36;;;-0.39;99.37
68077;BME280;54866;53.458;14.540;2023-02-04T02:28:20;101761.00;;;-0.35;99.69
68077;BME280;54866;53.458;14.540;2023-02-04T02:30:51;101763.33;;;-0.29;99.86
68077;BME280;54866;53.458;14.540;2023-02-04T02:33:21;101764.77;;;-0.22;100.00
68077;BME280;54866;53.458;14.540;2023-02-04T02:35:52;101768.48;;;-0.15;100.00
68077;BME280;54866;53.458;14.540;2023-02-04T02:38:21;101771.84;;;-0.09;100.00
68077;BME280;54866;53.458;14.540;2023-02-04T02:40:51;101778.02;;;-0.06;100.00
68077;BME280;54866;53.458;14.540;2023-02-04T02:43:24;101794.11;;;-0.06;100.00
68077;BME280;54866;53.458;14.540;2023-02-04T02:45:52;101810.42;;;-0.07;100.00
68077;BME280;54866;53.458;14.540;2023-02-04T02:48:23;101819.98;;;-0.09;100.00
68077;BME280;54866;53.458;14.540;2023-02-04T02:50:52;101831.80;;;-0.11;100.00
68077;BME280;54866;53.458;14.540;2023-02-04T02:53:22;101835.46;;;-0.12;100.00
68077;BME280;54866;53.458;14.540;2023-02-04T02:55:51;101838.42;;;-0.14;100.00
68077;BME280;54866;53.458;14.540;2023-02-04T02:58:25;101848.13;;;-0.14;100.00
68077;BME280;54866;53.458;14.540;2023-02-04T03:00:57;101848.61;;;-0.12;100.00
68077;BME280;54866;53.458;14.540;2023-02-04T03:03:28;101854.84;;;-0.12;100.00
68077;BME280;54866;53.458;14.540;2023-02-04T03:06:03;101860.89;;;-0.11;100.00
68077;BME280;54866;53.458;14.540;2023-02-04T03:08:33;101871.27;;;-0.09;100.00
68077;BME280;54866;53.458;14.540;2023-02-04T03:11:03;101884.45;;;-0.11;100.00
68077;BME280;54866;53.458;14.540;2023-02-04T03:13:33;101884.14;;;-0.13;100.00
68077;BME280;54866;53.458;14.540;2023-02-04T03:16:04;101886.64;;;-0.18;100.00
68077;BME280;54866;53.458;14.540;2023-02-04T03:18:35;101897.77;;;-0.22;100.00
68077;BME280;54866;53.458;14.540;2023-02-04T03:21:07;101911.00;;;-0.26;100.00
68077;BME280;54866;53.458;14.540;2023-02-04T03:23:36;101920.40;;;-0.30;100.00
68077;BME280;54866;53.458;14.540;2023-02-04T03:26:06;101924.79;;;-0.35;100.00
68077;BME280;54866;53.458;14.540;2023-02-04T03:28:39;101927.09;;;-0.39;100.00
68077;BME280;54866;53.458;14.540;2023-02-04T03:31:09;101931.48;;;-0.44;100.00
68077;BME280;54866;53.458;14.540;2023-02-04T03:33:39;101939.33;;;-0.46;100.00
68077;BME280;54866;53.458;14.540;2023-02-04T03:36:10;101945.09;;;-0.50;100.00
68077;BME280;54866;53.458;14.540;2023-02-04T03:38:39;101955.31;;;-0.52;100.00
68077;BME280;54866;53.458;14.540;2023-02-04T03:41:08;101961.08;;;-0.56;100.00
68077;BME280;54866;53.458;14.540;2023-02-04T03:43:38;101969.05;;;-0.58;100.00
68077;BME280;54866;53.458;14.540;2023-02-04T03:46:07;101969.61;;;-0.61;100.00
68077;BME280;54866;53.458;14.540;2023-02-04T03:48:36;101972.77;;;-0.63;100.00
68077;BME280;54866;53.458;14.540;2023-02-04T03:51:06;101975.56;;;-0.66;100.00
68077;BME280;54866;53.458;14.540;2023-02-04T03:53:35;101980.79;;;-0.68;100.00
68077;BME280;54866;53.458;14.540;2023-02-04T03:56:05;101988.92;;;-0.69;100.00
68077;BME280;54866;53.458;14.540;2023-02-04T03:58:34;101996.70;;;-0.71;100.00
68077;BME280;54866;53.458;14.540;2023-02-04T04:01:04;101999.33;;;-0.73;100.00
68077;BME280;54866;53.458;14.540;2023-02-04T04:03:33;102002.83;;;-0.75;100.00
68077;BME280;54866;53.458;14.540;2023-02-04T04:06:03;102012.71;;;-0.77;100.00
68077;BME280;54866;53.458;14.540;2023-02-04T04:08:33;102017.60;;;-0.82;100.00
68077;BME280;54866;53.458;14.540;2023-02-04T04:11:02;102024.89;;;-0.84;100.00
68077;BME280;54866;53.458;14.540;2023-02-04T04:13:32;102029.92;;;-0.85;100.00
68077;BME280;54866;53.458;14.540;2023-02-04T04:16:01;102039.27;;;-0.88;100.00
68077;BME280;54866;53.458;14.540;2023-02-04T04:18:32;102046.73;;;-0.91;100.00
68077;BME280;54866;53.458;14.540;2023-02-04T04:21:01;102050.59;;;-0.95;100.00
68077;BME280;54866;53.458;14.540;2023-02-04T04:23:30;102061.89;;;-0.99;100.00
68077;BME280;54866;53.458;14.540;2023-02-04T04:26:00;102070.05;;;-1.04;100.00
68077;BME280;54866;53.458;14.540;2023-02-04T04:28:29;102067.49;;;-1.10;100.00
68077;BME280;54866;53.458;14.540;2023-02-04T04:30:58;102075.14;;;-1.13;100.00
68077;BME280;54866;53.458;14.540;2023-02-04T04:33:27;102077.42;;;-1.18;100.00
68077;BME280;54866;53.458;14.540;2023-02-04T04:35:57;102080.21;;;-1.22;100.00
68077;BME280;54866;53.458;14.540;2023-02-04T04:38:26;102083.88;;;-1.28;100.00
68077;BME280;54866;53.458;14.540;2023-02-04T04:40:55;102090.14;;;-1.32;100.00
68077;BME280;54866;53.458;14.540;2023-02-04T04:43:25;102099.00;;;-1.36;100.00
68077;BME280;54866;53.458;14.540;2023-02-04T04:45:54;102104.02;;;-1.40;100.00
68077;BME280;54866;53.458;14.540;2023-02-04T04:48:23;102106.48;;;-1.46;100.00
68077;BME280;54866;53.458;14.540;2023-02-04T04:50:53;102114.09;;;-1.48;100.00
68077;BME280;54866;53.458;14.540;2023-02-04T04:53:22;102117.05;;;-1.50;100.00
68077;BME280;54866;53.458;14.540;2023-02-04T04:55:51;102115.69;;;-1.54;100.00
68077;BME280;54866;53.458;14.540;2023-02-04T04:58:21;102113.81;;;-1.58;100.00
68077;BME280;54866;53.458;14.540;2023-02-04T05:00:50;102124.33;;;-1.57;100.00
68077;BME280;54866;53.458;14.540;2023-02-04T05:03:19;102130.91;;;-1.59;100.00
68077;BME280;54866;53.458;14.540;2023-02-04T05:05:48;102139.05;;;-1.61;100.00
68077;BME280;54866;53.458;14.540;2023-02-04T05:08:18;102145.29;;;-1.64;100.00
68077;BME280;54866;53.458;14.540;2023-02-04T05:10:47;102146.52;;;-1.67;100.00
68077;BME280;54866;53.458;14.540;2023-02-04T05:13:17;102152.91;;;-1.69;100.00
68077;BME280;54866;53.458;14.540;2023-02-04T05:15:46;102158.29;;;-1.72;100.00
68077;BME280;54866;53.458;14.540;2023-02-04T05:18:15;102160.70;;;-1.73;100.00
68077;BME280;54866;53.458;14.540;2023-02-04T05:20:45;102166.05;;;-1.75;100.00
68077;BME280;54866;53.458;14.540;2023-02-04T05:23:14;102172.80;;;-1.77;100.00
68077;BME280;54866;53.458;14.540;2023-02-04T05:25:44;102185.95;;;-1.80;100.00
68077;BME280;54866;53.458;14.540;2023-02-04T05:28:13;102189.08;;;-1.83;100.00
68077;BME280;54866;53.458;14.540;2023-02-04T05:30:42;102193.58;;;-1.86;100.00
68077;BME280;54866;53.458;14.540;2023-02-04T05:33:11;102200.33;;;-1.88;100.00
68077;BME280;54866;53.458;14.540;2023-02-04T05:35:41;102202.21;;;-1.91;100.00
68077;BME280;54866;53.458;14.540;2023-02-04T05:38:10;102213.09;;;-1.91;100.00
68077;BME280;54866;53.458;14.540;2023-02-04T05:40:39;102224.66;;;-1.92;100.00
68077;BME280;54866;53.458;14.540;2023-02-04T05:43:09;102238.31;;;-1.91;100.00
68077;BME280;54866;53.458;14.540;2023-02-04T05:45:39;102241.25;;;-1.86;100.00
68077;BME280;54866;53.458;14.540;2023-02-04T05:48:08;102254.18;;;-1.80;100.00
68077;BME280;54866;53.458;14.540;2023-02-04T05:50:37;102262.98;;;-1.72;100.00
68077;BME280;54866;53.458;14.540;2023-02-04T05:53:07;102278.67;;;-1.62;100.00
68077;BME280;54866;53.458;14.540;2023-02-04T05:55:36;102288.32;;;-1.46;100.00
68077;BME280;54866;53.458;14.540;2023-02-04T05:58:06;102288.61;;;-1.31;100.00
68077;BME280;54866;53.458;14.540;2023-02-04T06:00:35;102288.77;;;-1.23;100.00
68077;BME280;54866;53.458;14.540;2023-02-04T06:03:05;102284.08;;;-1.16;100.00
68077;BME280;54866;53.458;14.540;2023-02-04T06:05:34;102290.44;;;-1.11;100.00
68077;BME280;54866;53.458;14.540;2023-02-04T06:08:04;102297.85;;;-1.08;100.00
68077;BME280;54866;53.458;14.540;2023-02-04T06:10:33;102300.96;;;-1.07;100.00
68077;BME280;54866;53.458;14.540;2023-02-04T06:13:02;102307.54;;;-1.02;100.00
68077;BME280;54866;53.458;14.540;2023-02-04T06:15:31;102309.60;;;-0.99;100.00
68077;BME280;54866;53.458;14.540;2023-02-04T06:18:01;102317.71;;;-0.98;100.00
68077;BME280;54866;53.458;14.540;2023-02-04T06:20:30;102326.70;;;-0.97;100.00
68077;BME280;54866;53.458;14.540;2023-02-04T06:22:59;102329.11;;;-0.96;100.00
68077;BME280;54866;53.458;14.540;2023-02-04T06:25:29;102333.96;;;-0.95;100.00
68077;BME280;54866;53.458;14.540;2023-02-04T06:27:58;102344.84;;;-0.93;100.00
68077;BME280;54866;53.458;14.540;2023-02-04T06:30:27;102347.62;;;-0.93;100.00
68077;BME280;54866;53.458;14.540;2023-02-04T06:32:57;102356.08;;;-0.90;100.00
68077;BME280;54866;53.458;14.540;2023-02-04T06:35:26;102363.52;;;-0.86;100.00
68077;BME280;54866;53.458;14.540;2023-02-04T06:37:55;102363.33;;;-0.83;100.00
68077;BME280;54866;53.458;14.540;2023-02-04T06:40:24;102367.13;;;-0.80;100.00
68077;BME280;54866;53.458;14.540;2023-02-04T06:42:54;102365.20;;;-0.78;100.00
68077;BME280;54866;53.458;14.540;2023-02-04T06:45:23;102367.77;;;-0.72;100.00
68077;BME280;54866;53.458;14.540;2023-02-04T06:47:52;102371.58;;;-0.69;100.00
68077;BME280;54866;53.458;14.540;2023-02-04T06:50:22;102385.05;;;-0.65;100.00
68077;BME280;54866;53.458;14.540;2023-02-04T06:52:51;102382.62;;;-0.64;100.00
68077;BME280;54866;53.458;14.540;2023-02-04T06:55:20;102396.80;;;-0.61;100.00
68077;BME280;54866;53.458;14.540;2023-02-04T06:57:49;102398.19;;;-0.61;100.00
68077;BME280;54866;53.458;14.540;2023-02-04T07:00:20;102402.68;;;-0.59;100.00
68077;BME280;54866;53.458;14.540;2023-02-04T07:02:49;102406.81;;;-0.57;100.00
68077;BME280;54866;53.458;14.540;2023-02-04T07:05:19;102404.39;;;-0.55;100.00
68077;BME280;54866;53.458;14.540;2023-02-04T07:07:49;102410.27;;;-0.52;100.00
68077;BME280;54866;53.458;14.540;2023-02-04T07:10:18;102410.78;;;-0.50;100.00
68077;BME280;54866;53.458;14.540;2023-02-04T07:12:48;102421.66;;;-0.46;100.00
68077;BME280;54866;53.458;14.540;2023-02-04T07:15:18;102422.69;;;-0.44;100.00
68077;BME280;54866;53.458;14.540;2023-02-04T07:17:47;102428.91;;;-0.41;100.00
68077;BME280;54866;53.458;14.540;2023-02-04T07:20:17;102428.36;;;-0.38;100.00
68077;BME280;54866;53.458;14.540;2023-02-04T07:22:46;102433.21;;;-0.35;100.00
68077;BME280;54866;53.458;14.540;2023-02-04T07:25:16;102437.01;;;-0.32;100.00
68077;BME280;54866;53.458;14.540;2023-02-04T07:27:45;102443.40;;;-0.28;100.00
68077;BME280;54866;53.458;14.540;2023-02-04T07:30:15;102435.60;;;-0.29;100.00
68077;BME280;54866;53.458;14.540;2023-02-04T07:32:45;102439.74;;;-0.26;100.00
68077;BME280;54866;53.458;14.540;2023-02-04T07:35:14;102439.05;;;-0.25;100.00
68077;BME280;54866;53.458;14.540;2023-02-04T07:37:44;102440.78;;;-0.26;100.00
68077;BME280;54866;53.458;14.540;2023-02-04T07:40:14;102443.21;;;-0.26;100.00
68077;BME280;54866;53.458;14.540;2023-02-04T07:42:43;102448.91;;;-0.25;100.00
68077;BME280;54866;53.458;14.540;2023-02-04T07:45:13;102453.74;;;-0.22;100.00
68077;BME280;54866;53.458;14.540;2023-02-04T07:47:42;102461.35;;;-0.18;100.00
68077;BME280;54866;53.458;14.540;2023-02-04T07:50:11;102466.02;;;-0.12;100.00
68077;BME280;54866;53.458;14.540;2023-02-04T07:52:41;102463.34;;;-0.04;100.00
68077;BME280;54866;53.458;14.540;2023-02-04T07:55:10;102465.73;;;0.04;100.00
68077;BME280;54866;53.458;14.540;2023-02-04T07:57:40;102470.80;;;0.24;100.00
68077;BME280;54866;53.458;14.540;2023-02-04T08:00:11;102476.17;;;0.47;100.00
68077;BME280;54866;53.458;14.540;2023-02-04T08:02:41;102479.30;;;0.69;100.00
68077;BME280;54866;53.458;14.540;2023-02-04T08:05:10;102484.84;;;1.24;99.95
68077;BME280;54866;53.458;14.540;2023-02-04T08:07:40;102484.94;;;2.45;99.11
68077;BME280;54866;53.458;14.540;2023-02-04T08:10:10;102485.34;;;3.59;95.15
68077;BME280;54866;53.458;14.540;2023-02-04T08:12:40;102487.52;;;3.88;91.94
68077;BME280;54866;53.458;14.540;2023-02-04T08:15:10;102485.66;;;4.39;89.93
68077;BME280;54866;53.458;14.540;2023-02-04T08:17:39;102486.98;;;6.36;86.10
68077;BME280;54866;53.458;14.540;2023-02-04T08:20:10;102491.37;;;6.90;79.03
68077;BME280;54866;53.458;14.540;2023-02-04T08:22:39;102495.19;;;7.01;77.96
68077;BME280;54866;53.458;14.540;2023-02-04T08:25:10;102493.10;;;6.59;73.48
68077;BME280;54866;53.458;14.540;2023-02-04T08:27:40;102499.45;;;5.96;75.84
68077;BME280;54866;53.458;14.540;2023-02-04T08:30:11;102504.52;;;5.53;75.80
68077;BME280;54866;53.458;14.540;2023-02-04T08:32:40;102512.59;;;5.14;76.88
68077;BME280;54866;53.458;14.540;2023-02-04T08:35:10;102512.86;;;4.84;75.23
68077;BME280;54866;53.458;14.540;2023-02-04T08:37:39;102516.30;;;4.42;74.81
68077;BME280;54866;53.458;14.540;2023-02-04T08:40:10;102531.98;;;4.05;74.03
68077;BME280;54866;53.458;14.540;2023-02-04T08:42:39;102532.85;;;3.80;75.32
68077;BME280;54866;53.458;14.540;2023-02-04T08:45:09;102540.67;;;3.64;75.01
68077;BME280;54866;53.458;14.540;2023-02-04T08:47:39;102544.56;;;3.52;76.12
68077;BME280;54866;53.458;14.540;2023-02-04T08:50:09;102543.83;;;3.63;77.17
68077;BME280;54866;53.458;14.540;2023-02-04T08:52:39;102551.91;;;3.69;76.37
68077;BME280;54866;53.458;14.540;2023-02-04T08:55:09;102548.53;;;3.54;75.59
68077;BME280;54866;53.458;14.540;2023-02-04T08:57:38;102554.38;;;3.21;72.86
68077;BME280;54866;53.458;14.540;2023-02-04T09:00:10;102553.23;;;2.95;74.38
68077;BME280;54866;53.458;14.540;2023-02-04T09:02:40;102556.78;;;2.82;75.56
68077;BME280;54866;53.458;14.540;2023-02-04T09:05:09;102556.48;;;3.00;75.65
68077;BME280;54866;53.458;14.540;2023-02-04T09:07:39;102561.11;;;3.85;73.49
68077;BME280;54866;53.458;14.540;2023-02-04T09:10:09;102552.91;;;6.09;69.39
68077;BME280;54866;53.458;14.540;2023-02-04T09:12:38;102555.95;;;8.27;63.59
68077;BME280;54866;53.458;14.540;2023-02-04T09:15:10;102551.86;;;9.80;54.49
68077;BME280;54866;53.458;14.540;2023-02-04T09:17:39;102555.58;;;9.96;51.20
68077;BME280;54866;53.458;14.540;2023-02-04T09:20:12;102559.54;;;10.36;45.94
68077;BME280;54866;53.458;14.540;2023-02-04T09:22:41;102569.80;;;11.31;45.04
68077;BME280;54866;53.458;14.540;2023-02-04T09:25:10;102563.16;;;12.57;46.09
68077;BME280;54866;53.458;14.540;2023-02-04T09:27:40;102561.62;;;13.85;39.32
68077;BME280;54866;53.458;14.540;2023-02-04T09:30:10;102556.95;;;14.61;38.72
68077;BME280;54866;53.458;14.540;2023-02-04T09:32:40;102557.55;;;14.04;37.22
68077;BME280;54866;53.458;14.540;2023-02-04T09:35:09;102568.16;;;13.09;38.57
68077;BME280;54866;53.458;14.540;2023-02-04T09:37:39;102571.77;;;12.62;38.99
68077;BME280;54866;53.458;14.540;2023-02-04T09:40:12;102575.02;;;13.06;40.30
68077;BME280;54866;53.458;14.540;2023-02-04T09:42:42;102575.00;;;13.37;39.66
68077;BME280;54866;53.458;14.540;2023-02-04T09:45:16;102583.20;;;12.57;40.88
68077;BME280;54866;53.458;14.540;2023-02-04T09:47:46;102588.30;;;11.39;40.54
68077;BME280;54866;53.458;14.540;2023-02-04T09:50:17;102590.66;;;10.29;41.84
68077;BME280;54866;53.458;14.540;2023-02-04T09:52:50;102597.32;;;9.10;42.63
68077;BME280;54866;53.458;14.540;2023-02-04T09:55:21;102603.58;;;7.80;43.50
68077;BME280;54866;53.458;14.540;2023-02-04T09:57:53;102609.50;;;6.72;45.05
68077;BME280;54866;53.458;14.540;2023-02-04T10:00:25;102613.04;;;6.01;46.55
68077;BME280;54866;53.458;14.540;2023-02-04T10:02:55;102620.44;;;5.54;48.51
68077;BME280;54866;53.458;14.540;2023-02-04T10:05:28;102622.16;;;5.20;49.38
68077;BME280;54866;53.458;14.540;2023-02-04T10:07:58;102624.94;;;5.00;50.57
68077;BME280;54866;53.458;14.540;2023-02-04T10:10:28;102623.85;;;4.64;51.17
68077;BME280;54866;53.458;14.540;2023-02-04T10:13:00;102630.70;;;4.30;52.85
68077;BME280;54866;53.458;14.540;2023-02-04T10:15:30;102633.35;;;3.94;54.16
68077;BME280;54866;53.458;14.540;2023-02-04T10:18:03;102638.58;;;3.57;55.57
68077;BME280;54866;53.458;14.540;2023-02-04T10:20:34;102647.07;;;3.30;56.82
68077;BME280;54866;53.458;14.540;2023-02-04T10:23:08;102650.58;;;3.17;57.63
68077;BME280;54866;53.458;14.540;2023-02-04T10:25:38;102655.42;;;3.08;58.75
68077;BME280;54866;53.458;14.540;2023-02-04T10:28:07;102652.23;;;2.89;59.39
68077;BME280;54866;53.458;14.540;2023-02-04T10:30:41;102650.67;;;2.77;59.75
68077;BME280;54866;53.458;14.540;2023-02-04T10:33:19;102657.20;;;2.70;60.30
68077;BME280;54866;53.458;14.540;2023-02-04T10:35:53;102657.80;;;2.78;60.89
68077;BME280;54866;53.458;14.540;2023-02-04T10:38:23;102660.52;;;3.56;60.10
68077;BME280;54866;53.458;14.540;2023-02-04T10:41:02;102658.90;;;4.41;56.37
68077;BME280;54866;53.458;14.540;2023-02-04T10:43:32;102656.23;;;5.06;55.78
68077;BME280;54866;53.458;14.540;2023-02-04T10:46:03;102661.09;;;4.93;55.17
68077;BME280;54866;53.458;14.540;2023-02-04T10:48:40;102660.16;;;4.80;54.70
68077;BME280;54866;53.458;14.540;2023-02-04T10:51:13;102656.59;;;5.42;52.47
68077;BME280;54866;53.458;14.540;2023-02-04T10:53:42;102655.30;;;5.85;50.52
68077;BME280;54866;53.458;14.540;2023-02-04T10:56:29;102651.31;;;7.07;49.27
68077;BME280;54866;53.458;14.540;2023-02-04T10:58:59;102645.91;;;8.60;46.71
68077;BME280;54866;53.458;14.540;2023-02-04T11:01:29;102643.79;;;9.43;44.54
68077;BME280;54866;53.458;14.540;2023-02-04T11:03:59;102644.57;;;10.45;41.23
68077;BME280;54866;53.458;14.540;2023-02-04T11:06:29;102642.81;;;11.15;41.57
68077;BME280;54866;53.458;14.540;2023-02-04T11:08:59;102653.02;;;10.97;39.97
68077;BME280;54866;53.458;14.540;2023-02-04T11:11:30;102656.50;;;10.68;40.30
68077;BME280;54866;53.458;14.540;2023-02-04T11:14:01;102660.09;;;9.31;39.44
68077;BME280;54866;53.458;14.540;2023-02-04T11:16:32;102668.45;;;8.59;40.96
68077;BME280;54866;53.458;14.540;2023-02-04T11:19:04;102675.11;;;8.45;42.20
68077;BME280;54866;53.458;14.540;2023-02-04T11:21:43;102674.46;;;9.33;42.35
68077;BME280;54866;53.458;14.540;2023-02-04T11:24:24;102661.96;;;10.11;38.92
68077;BME280;54866;53.458;14.540;2023-02-04T11:27:06;102659.71;;;10.64;37.61
68077;BME280;54866;53.458;14.540;2023-02-04T11:29:37;102660.25;;;11.37;37.22
68077;BME280;54866;53.458;14.540;2023-02-04T11:32:25;102663.16;;;12.23;36.58
68077;BME280;54866;53.458;14.540;2023-02-04T11:35:04;102662.30;;;12.78;35.11
68077;BME280;54866;53.458;14.540;2023-02-04T11:37:39;102666.65;;;13.38;35.26
68077;BME280;54866;53.458;14.540;2023-02-04T11:40:28;102671.05;;;14.04;34.97
68077;BME280;54866;53.458;14.540;2023-02-04T11:42:59;102678.83;;;14.01;33.57
68077;BME280;54866;53.458;14.540;2023-02-04T11:45:33;102672.96;;;14.07;34.78
68077;BME280;54866;53.458;14.540;2023-02-04T11:48:09;102669.95;;;14.22;32.78
68077;BME280;54866;53.458;14.540;2023-02-04T11:50:40;102680.61;;;14.01;32.31
68077;BME280;54866;53.458;14.540;2023-02-04T11:53:10;102694.45;;;13.07;34.50
68077;BME280;54866;53.458;14.540;2023-02-04T11:55:45;102700.34;;;12.22;33.82
68077;BME280;54866;53.458;14.540;2023-02-04T11:58:17;102696.99;;;11.75;34.46
68077;BME280;54866;53.458;14.540;2023-02-04T12:00:47;102704.19;;;10.97;36.27
68077;BME280;54866;53.458;14.540;2023-02-04T12:03:25;102707.94;;;10.35;38.18
68077;BME280;54866;53.458;14.540;2023-02-04T12:05:55;102709.25;;;9.84;39.41
68077;BME280;54866;53.458;14.540;2023-02-04T12:08:34;102712.85;;;9.37;39.81
68077;BME280;54866;53.458;14.540;2023-02-04T12:11:06;102719.58;;;8.82;40.13
68077;BME280;54866;53.458;14.540;2023-02-04T12:13:48;102715.86;;;8.22;40.24
68077;BME280;54866;53.458;14.540;2023-02-04T12:16:19;102719.63;;;7.94;40.67
68077;BME280;54866;53.458;14.540;2023-02-04T12:18:49;102723.80;;;8.20;41.07
68077;BME280;54866;53.458;14.540;2023-02-04T12:21:19;102728.09;;;8.33;40.05
68077;BME280;54866;53.458;14.540;2023-02-04T12:23:48;102729.20;;;7.81;40.95
68077;BME280;54866;53.458;14.540;2023-02-04T12:26:17;102729.59;;;7.15;41.55
68077;BME280;54866;53.458;14.540;2023-02-04T12:28:46;102737.48;;;6.38;42.93
68077;BME280;54866;53.458;14.540;2023-02-04T12:31:16;102738.88;;;5.93;44.06
68077;BME280;54866;53.458;14.540;2023-02-04T12:33:45;102739.19;;;6.58;44.03
68077;BME280;54866;53.458;14.540;2023-02-04T12:36:14;102736.42;;;7.27;43.68
68077;BME280;54866;53.458;14.540;2023-02-04T12:38:44;102749.17;;;7.00;43.64
68077;BME280;54866;53.458;14.540;2023-02-04T12:41:13;102753.72;;;6.95;44.79
68077;BME280;54866;53.458;14.540;2023-02-04T12:43:43;102751.23;;;7.08;44.30
68077;BME280;54866;53.458;14.540;2023-02-04T12:46:12;102759.09;;;7.42;44.18
68077;BME280;54866;53.458;14.540;2023-02-04T12:48:41;102762.06;;;6.97;42.98
68077;BME280;54866;53.458;14.540;2023-02-04T12:51:11;102762.79;;;6.78;43.74
68077;BME280;54866;53.458;14.540;2023-02-04T12:53:40;102759.67;;;7.40;44.29